Decoded Metar for TFFR (POINTE-A-PITRE in ANTILLES) (IATA:PTP) | Meteo·Mobile Aviation Weather
aviador You're here:

TFFR Decoded Metar

POINTE-A-PITRE in ANTILLES
Report Time2019-02-18 10:30:00
UTC Time2019-02-18 11:05:34
Flight Rules vfr VFR
Wind120° at 10 kt
W.Decomp.*RWY 12: 9.7 kt HW 2.6 kt RCW
W.Rank120° ranks 5
Current wind is above 120° avg. (8.8)
Visibility9999 m
Phenomena:N/A
Clouds:Few 026 Hf
Broken 058 Hf
Broken 072 Hf
Expected CloudBase > 800 ft AGL from Temp-Dew spread
Ceiling5,800 ft
Temp22°C (ISA +7)
Dew Point20°C (88% RH)
QNH1018 hPa
Density Alt1,001 ft
Elevation36 ft
Report Wrong Elevation
Raw Report
METAR TFFR 181030Z AUTO 12010KT 9999 FEW026 BKN058 BKN072 22/20 Q1018=

Extra information for TFFR:More info

Metar Taf Metar & Taf Last 4 Metars F.Rules Stats Wind Profile Meteogram Temp Stats Airport Information Weather charts Add Link Nearby VenuesMetar ALERT Operation Metar Decoded Social comments